Latest Weather Observations for Mount Crawford

IDS60801

Issued at 12:01 am CST Sunday 1 May 2016 (issued every 30 minutes, with the page automatically refreshed every 10 minutes)

About weather observations | Map of weather stations | Latest weather observations for SA | Other Formats
Station Details ID: 023878 Name: MOUNT CRAWFORD AWS Lat: -34.73 Lon: 138.93 Height: 525.0 m
Data from the previous 72 hours. | See also: Recent months at Mount Crawford
Date/Time
CST
Temp
°C
App
Temp
°C
Dew
Point
Rel
Hum
%
Delta-T
°C
Wind Press
QNH
hPa
Press
MSL
hPa
Rain
since 9 am
mm
Dir
 
Spd
km/h
Gust
km/h
Spd
kts
Gust
kts
01/12:00am 11.8 2.4 10.2 90 0.8 W 50 72 27 39 1008.4 1007.4 3.2
 
Date/Time
CST
Temp
°C
App
Temp
°C
Dew
Point
Rel
Hum
%
Delta-T
°C
Wind Press
QNH
hPa
Press
MSL
hPa
Rain
since 9 am
mm
Dir
 
Spd
km/h
Gust
km/h
Spd
kts
Gust
kts
30/11:33pm 11.8 4.6 10.5 92 0.7 W 39 59 21 32 1008.5 1007.5 3.2
30/11:30pm 11.8 4.6 10.7 93 0.6 W 39 56 21 30 1008.6 1007.6 3.2
30/11:00pm 11.5 4.2 10.1 91 0.7 W 39 61 21 33 1008.8 1007.8 3.2
30/10:30pm 13.0 4.9 8.5 74 2.3 W 41 67 22 36 1008.7 1007.7 3.0
30/10:02pm 13.6 6.4 9.3 75 2.3 W 37 63 20 34 1008.9 1007.9 3.0
30/10:00pm 13.6 6.9 9.8 78 2.0 W 35 50 19 27 1009.4 1008.3 3.0
30/09:30pm 14.0 7.5 10.2 78 2.0 W 35 54 19 29 1009.9 1008.9 3.0
30/09:00pm 14.5 7.0 10.9 79 2.0 W 41 65 22 35 1009.3 1008.2 2.8
30/08:30pm 14.6 6.2 11.0 79 2.0 W 46 65 25 35 1008.3 1007.3 2.8
30/08:00pm 15.2 5.2 10.6 74 2.5 W 54 76 29 41 1007.4 1006.3 2.6
30/07:50pm 17.3 11.0 11.1 67 3.4 WNW 35 65 19 35 1007.2 1006.1 1.6
30/07:48pm 17.2 11.1 10.6 65 3.6 NW 33 52 18 28 1007.2 1006.1 1.6
30/07:39pm 18.3 13.3 10.9 62 4.1 NW 28 50 15 27 1006.8 1005.8 1.4
30/07:30pm 17.8 13.7 11.6 67 3.5 NW 24 37 13 20 1007.0 1005.9 1.4
30/07:08pm 18.2 13.0 11.5 65 3.8 NW 30 61 16 33 1007.3 1006.2 0.8
30/07:00pm 20.0 14.3 9.9 52 5.6 NNW 30 43 16 23 1007.0 1005.9 0.2
30/06:40pm 20.1 13.9 9.4 50 5.8 NNW 32 50 17 27 1007.2 1006.1 0.2
30/06:30pm 19.9 14.0 9.2 50 5.8 NNW 30 43 16 23 1007.2 1006.1 0.2
30/06:07pm 20.7 14.0 7.3 42 7.0 NNW 32 52 17 28 1007.3 1006.2 0.2
30/06:00pm 20.6 13.8 6.9 41 7.2 NNW 32 46 17 25 1007.3 1006.2 0.2
30/05:33pm 20.7 14.0 5.5 37 7.7 NNW 30 48 16 26 1007.5 1006.4 0.2
30/05:30pm 20.8 13.7 5.6 37 7.8 NNW 32 48 17 26 1007.5 1006.4 0.2
30/05:00pm 21.0 14.5 4.6 34 8.2 NW 28 48 15 26 1007.7 1006.6 0.2
30/04:30pm 21.8 14.1 3.5 30 9.0 NW 33 56 18 30 1008.0 1006.9 0.2
30/04:05pm 22.1 15.3 3.3 29 9.3 NW 28 48 15 26 1008.0 1006.9 0.2
30/04:00pm 22.2 15.4 3.3 29 9.3 NW 28 43 15 23 1008.2 1007.2 0.2
30/03:32pm 22.2 14.9 2.3 27 9.6 NW 30 48 16 26 1008.3 1007.3 0.2
30/03:30pm 22.1 14.5 2.8 28 9.4 NW 32 48 17 26 1008.3 1007.3 0.2
30/03:05pm 22.1 13.9 2.8 28 9.4 NW 35 56 19 30 1008.4 1007.4 0.2
30/03:00pm 22.2 14.4 2.8 28 9.5 NW 33 50 18 27 1008.4 1007.4 0.2
30/02:54pm 22.2 14.4 2.8 28 9.5 NW 33 50 18 27 1008.5 1007.5 0.2
30/02:30pm 22.2 13.8 3.8 30 9.2 NNW 37 56 20 30 1008.8 1007.8 0.2
30/02:00pm 22.0 13.2 3.6 30 9.1 NNW 39 59 21 32 1009.2 1008.1 0.2
30/01:57pm 22.0 13.9 3.2 29 9.2 NNW 35 59 19 32 1009.2 1008.1 0.2
30/01:30pm 21.4 14.5 4.5 33 8.5 NW 30 44 16 24 1009.6 1008.5 0.2
30/01:00pm 22.3 14.8 4.4 31 9.0 NNW 33 52 18 28 1010.3 1009.3 0.2
30/12:46pm 21.2 13.1 3.4 31 8.7 NNW 35 48 19 26 1010.5 1009.5 0.2
30/12:30pm 20.9 13.2 2.2 29 9.0 NW 32 50 17 27 1010.7 1009.7 0.2
30/12:00pm 20.8 13.7 3.5 32 8.5 NW 30 44 16 24 1011.6 1010.6 0.2
30/11:30am 20.8 13.3 3.5 32 8.5 NNW 32 44 17 24 1012.1 1011.1 0.2
30/11:00am 20.0 13.9 6.7 42 6.9 NNW 28 43 15 23 1012.8 1011.8 0.2
30/10:30am 19.4 15.1 9.3 52 5.5 NNW 22 33 12 18 1013.3 1012.3 0.0
30/10:00am 18.8 14.6 9.6 55 5.0 N 22 35 12 19 1013.5 1012.5 0.0
30/09:30am 17.8 13.4 7.2 50 5.5 N 20 28 11 15 1013.7 1012.7 0.0
30/09:00am 16.8 12.6 7.4 54 4.8 N 19 28 10 15 1013.9 1012.9 0.0
30/08:30am 16.2 13.0 8.4 60 4.1 N 15 20 8 11 1014.0 1013.0 0.0
30/08:00am 14.7 11.1 8.2 65 3.4 N 17 24 9 13 1013.9 1012.9 0.0
30/07:30am 14.0 9.9 8.0 67 3.1 NNW 19 24 10 13 1013.8 1012.8 0.0
30/07:00am 12.9 8.8 8.6 75 2.2 N 20 28 11 15 1013.7 1012.7 0.0
30/06:30am 12.9 8.8 8.8 76 2.1 NNW 20 24 11 13 1013.5 1012.5 0.0
30/06:00am 13.1 9.4 9.5 79 1.9 NNW 19 24 10 13 1013.4 1012.4 0.0
30/05:30am 13.0 9.4 9.8 81 1.7 NNW 19 28 10 15 1013.3 1012.3 0.0
30/05:00am 13.0 9.9 10.2 83 1.5 NW 17 26 9 14 1012.9 1011.9 0.0
30/04:30am 13.3 9.9 10.5 83 1.5 NW 19 26 10 14 1012.8 1011.8 0.0
30/04:00am 13.4 10.4 10.6 83 1.5 NW 17 22 9 12 1012.9 1011.9 0.0
30/03:30am 13.4 10.1 11.5 88 1.0 NW 20 28 11 15 1012.6 1011.6 0.0
30/03:00am 13.6 10.4 11.3 86 1.3 WNW 19 26 10 14 1012.6 1011.6 0.0
30/02:30am 14.0 10.4 11.7 86 1.3 WNW 22 32 12 17 1012.8 1011.8 0.0
30/02:00am 14.1 11.6 12.3 89 1.0 NW 17 22 9 12 1012.9 1011.9 0.0
30/01:30am 13.9 11.5 12.6 92 0.7 NW 17 22 9 12 1012.9 1011.9 0.0
30/01:00am 14.0 11.3 12.9 93 0.6 WNW 19 28 10 15 1013.3 1012.3 0.0
30/12:30am 14.4 11.7 13.0 91 0.8 NW 19 24 10 13 1013.4 1012.4 0.0
30/12:00am 15.3 13.0 13.0 86 1.3 NW 17 20 9 11 1013.4 1012.4 0.0
 
Date/Time
CST
Temp
°C
App
Temp
°C
Dew
Point
Rel
Hum
%
Delta-T
°C
Wind Press
QNH
hPa
Press
MSL
hPa
Rain
since 9 am
mm
Dir
 
Spd
km/h
Gust
km/h
Spd
kts
Gust
kts
29/11:30pm 15.6 14.0 12.9 84 1.5 NW 13 17 7 9 1013.6 1012.6 0.0
29/11:00pm 15.8 14.3 13.1 84 1.5 NW 13 17 7 9 1013.7 1012.7 0.0
29/10:30pm 15.9 14.4 13.0 83 1.7 NNW 13 17 7 9 1013.8 1012.8 0.0
29/10:00pm 16.3 14.8 13.2 82 1.8 NNW 13 17 7 9 1013.9 1012.9 0.0
29/09:30pm 16.4 14.8 12.9 80 2.0 NNW 13 17 7 9 1013.8 1012.8 0.0
29/09:00pm 16.4 14.8 12.9 80 2.0 NNW 13 17 7 9 1013.8 1012.8 0.0
29/08:30pm 15.8 15.1 13.1 84 1.5 N 9 13 5 7 1013.6 1012.6 0.0
29/08:00pm 15.7 15.4 13.2 85 1.4 N 7 9 4 5 1013.5 1012.5 0.0
29/07:30pm 15.8 16.1 13.3 85 1.4 NW 4 7 2 4 1013.3 1012.3 0.0
29/07:00pm 15.8 15.1 13.1 84 1.5 WNW 9 11 5 6 1013.2 1012.2 0.0
29/06:30pm 16.1 15.0 13.2 83 1.7 W 11 15 6 8 1012.9 1011.9 0.0
29/06:00pm 16.5 15.0 13.2 81 1.9 W 13 17 7 9 1012.6 1011.6 0.0
29/05:30pm 17.4 15.9 13.1 76 2.5 WNW 13 19 7 10 1012.6 1011.6 0.0
29/05:00pm 18.5 16.3 13.4 72 3.0 W 17 26 9 14 1012.4 1011.4 0.0
29/04:30pm 19.0 15.9 13.4 70 3.3 W 22 32 12 17 1012.3 1011.3 0.0
29/04:00pm 18.6 14.9 12.6 68 3.4 W 24 33 13 18 1012.2 1011.2 0.0
29/03:30pm 19.4 16.7 13.6 69 3.4 WNW 20 30 11 16 1012.0 1011.0 0.0
29/03:00pm 18.7 15.9 13.1 70 3.2 WNW 20 28 11 15 1011.7 1010.7 0.0
29/02:30pm 18.5 14.9 12.9 70 3.2 WNW 24 33 13 18 1011.4 1010.4 0.0
29/02:00pm 17.8 13.7 12.7 72 2.9 WNW 26 39 14 21 1011.5 1010.5 0.0
29/01:30pm 17.8 14.2 13.1 74 2.7 WNW 24 39 13 21 1011.6 1010.6 0.0
29/01:00pm 17.9 15.2 13.4 75 2.6 WNW 20 32 11 17 1011.7 1010.7 0.0
29/12:30pm 16.3 13.6 12.8 80 2.0 WNW 19 28 10 15 1012.1 1011.1 0.0
29/12:00pm 16.1 13.1 12.7 80 1.9 WNW 20 30 11 16 1012.3 1011.3 0.0
29/11:30am 16.5 13.2 12.8 79 2.1 NW 22 35 12 19 1012.5 1011.5 0.0
29/11:00am 16.5 12.9 13.2 81 1.9 NNW 24 30 13 16 1012.7 1011.7 0.0
29/10:30am 15.0 12.1 12.9 87 1.2 NNW 20 30 11 16 1013.2 1012.2 0.0
29/10:00am 14.8 11.9 12.8 88 1.1 NNW 20 30 11 16 1013.4 1012.4 0.0
29/09:30am 15.0 12.1 13.0 88 1.1 NNW 20 30 11 16 1013.2 1012.2 0.0
29/09:00am 14.6 11.3 12.8 89 1.0 NNW 22 30 12 16 1013.3 1012.3 4.2
29/08:30am 14.0 11.1 12.9 93 0.6 NNW 20 30 11 16 1013.2 1012.2 4.2
29/08:00am 13.7 10.5 13.1 96 0.3 NNW 22 30 12 16 1013.2 1012.2 4.2
29/07:30am 13.8 9.4 12.9 94 0.5 NNW 28 37 15 20 1013.2 1012.2 4.0
29/07:00am 13.5 9.9 13.2 98 0.2 NW 24 37 13 20 1013.4 1012.4 4.0
29/06:30am 13.4 10.2 13.2 99 0.1 NW 22 35 12 19 1013.1 1012.1 3.6
29/06:00am 13.3 9.7 13.1 99 0.1 WNW 24 30 13 16 1013.1 1012.1 3.4
29/05:30am 13.4 9.5 13.2 99 0.1 WNW 26 33 14 18 1013.3 1012.3 3.0
29/05:00am 13.5 9.6 13.2 98 0.2 WNW 26 35 14 19 1013.5 1012.5 2.6
29/04:30am 13.9 9.0 12.6 92 0.7 WNW 30 44 16 24 1013.6 1012.6 2.0
29/04:00am 14.2 10.4 12.4 89 1.0 WNW 24 35 13 19 1014.0 1013.0 1.6
29/03:30am 14.6 11.0 11.7 83 1.6 WNW 22 35 12 19 1014.2 1013.2 1.0
29/03:00am 16.6 9.9 9.5 63 3.8 WNW 35 57 19 31 1014.2 1013.2 0.4
29/02:42am 17.6 11.5 8.2 54 4.9 NW 30 50 16 27 1014.2 1013.2 0.4
29/02:30am 17.5 10.4 8.1 54 4.9 NNW 35 50 19 27 1014.2 1013.2 0.4
29/02:00am 17.4 11.7 8.3 55 4.8 NNW 28 37 15 20 1014.4 1013.4 0.4
29/01:30am 17.3 11.5 7.9 54 4.9 NNW 28 41 15 22 1014.4 1013.4 0.4
29/01:04am 19.3 12.7 6.1 42 6.7 N 30 48 16 26 1014.3 1013.3 0.2
29/01:00am 19.5 12.7 5.2 39 7.2 N 30 43 16 23 1014.3 1013.3 0.2
29/12:35am 20.0 12.5 6.4 41 7.0 NNW 35 54 19 29 1014.1 1013.1 0.2
29/12:30am 20.3 12.3 5.9 39 7.4 NNW 37 54 20 29 1014.2 1013.2 0.2
29/12:03am 21.2 12.3 5.1 35 8.1 N 41 61 22 33 1013.8 1012.8 0.2
29/12:00am 21.9 12.8 4.0 31 8.9 N 41 57 22 31 1013.8 1012.8 0.2
 
Date/Time
CST
Temp
°C
App
Temp
°C
Dew
Point
Rel
Hum
%
Delta-T
°C
Wind Press
QNH
hPa
Press
MSL
hPa
Rain
since 9 am
mm
Dir
 
Spd
km/h
Gust
km/h
Spd
kts
Gust
kts
28/11:30pm 22.4 14.7 2.5 27 9.7 N 32 50 17 27 1013.3 1012.3 0.2
28/11:28pm 22.4 15.1 2.5 27 9.7 N 30 50 16 27 1013.3 1012.3 0.2
28/11:00pm 21.2 13.8 3.9 32 8.6 NNE 32 41 17 22 1013.3 1012.3 0.0
28/10:30pm 20.0 13.7 5.6 39 7.3 NNE 28 37 15 20 1013.5 1012.5 0.0
28/10:00pm 19.8 14.9 6.9 43 6.7 NE 22 32 12 17 1014.0 1013.0 0.0
28/09:30pm 19.1 15.1 8.1 49 5.8 NE 19 30 10 16 1014.6 1013.7 0.0
28/09:00pm 20.1 15.4 7.8 45 6.5 NE 22 30 12 16 1015.2 1014.2 0.0
28/08:30pm 20.4 13.9 8.1 45 6.6 NE 32 44 17 24 1014.7 1013.8 0.0
28/08:00pm 19.9 13.6 8.9 49 5.9 NE 32 44 17 24 1014.6 1013.7 0.0
28/07:30pm 19.7 14.3 9.6 52 5.5 NE 28 35 15 19 1014.6 1013.7 0.0
28/07:00pm 19.5 14.3 10.2 55 5.1 NNE 28 39 15 21 1014.9 1014.0 0.0
28/06:30pm 18.9 14.9 11.7 63 4.1 NNE 24 33 13 18 1014.7 1013.8 0.0
28/06:00pm 18.6 14.5 12.6 68 3.4 NNE 26 37 14 20 1014.6 1013.7 0.0
28/05:30pm 19.0 15.2 12.5 66 3.7 NE 24 35 13 19 1014.5 1013.5 0.0
28/05:00pm 18.9 15.3 13.1 69 3.4 NE 24 32 13 17 1014.4 1013.4 0.0
28/04:30pm 19.5 16.8 13.0 66 3.8 NE 19 24 10 13 1014.9 1014.0 0.0
28/04:00pm 19.4 17.3 13.6 69 3.4 ENE 17 22 9 12 1014.7 1013.8 0.0
28/03:30pm 19.8 16.7 13.5 67 3.7 NE 22 28 12 15 1014.4 1013.4 0.0
28/03:00pm 20.3 18.1 14.4 69 3.5 ENE 19 24 10 13 1014.4 1013.4 0.0
28/02:30pm 22.0 19.3 13.6 59 5.0 ENE 20 30 11 16 1014.6 1013.7 0.0
28/02:00pm 21.1 18.8 14.0 64 4.2 ENE 19 28 10 15 1014.8 1013.9 0.0
28/01:30pm 22.3 21.6 14.4 61 4.7 NE 11 19 6 10 1015.4 1014.4 0.0
28/01:00pm 21.8 19.8 11.5 52 5.9 NNE 13 28 7 15 1016.1 1015.1 0.0
28/12:30pm 20.7 19.4 13.6 64 4.2 NE 13 24 7 13 1016.6 1015.7 0.0
28/12:00pm 19.2 17.4 14.5 74 2.8 N 17 22 9 12 1017.5 1016.5 0.0
28/11:30am 16.8 16.1 15.5 92 0.8 ENE 13 19 7 10 1017.7 1016.7 0.0
28/11:00am 15.5 14.1 14.5 94 0.6 ENE 15 19 8 10 1017.9 1016.9 0.0
28/10:30am 14.9 13.8 14.4 97 0.3 ENE 13 19 7 10 1018.3 1017.4 0.0
28/10:00am 14.5 13.4 14.3 99 0.1 ENE 13 17 7 9 1018.5 1017.6 0.0
28/09:30am 14.0 12.7 13.8 99 0.1 ENE 13 17 7 9 1018.6 1017.7 0.0
28/09:00am 14.3 13.8 13.8 97 0.3 E 9 13 5 7 1018.7 1017.8 0.4
28/08:30am 14.0 13.9 13.8 99 0.1 NNE 7 9 4 5 1018.7 1017.8 0.4
28/08:00am 13.9 13.4 13.7 99 0.1 NNE 9 13 5 7 1018.6 1017.7 0.4
28/07:30am 13.8 13.5 13.3 97 0.3 NW 7 11 4 6 1018.4 1017.5 0.4
28/07:00am 13.6 13.2 13.1 97 0.3 NE 7 11 4 6 1017.7 1016.7 0.4
28/06:30am 13.4 12.3 13.1 98 0.2 E 11 15 6 8 1017.2 1016.2 0.2
28/06:00am 14.0 11.6 12.7 92 0.7 SE 17 20 9 11 1016.8 1015.9 0.2
28/05:30am 14.0 10.6 12.6 91 0.8 SSE 22 28 12 15 1016.5 1015.6 0.2
28/05:00am 13.9 10.7 13.0 94 0.5 SSE 22 28 12 15 1016.2 1015.2 0.2
28/04:30am 14.2 13.0 14.0 99 0.1 S 13 20 7 11 1016.7 1015.8 0.0
28/04:00am 14.2 13.0 13.9 98 0.2 SW 13 17 7 9 1016.8 1015.9 0.0
28/03:30am 14.5 13.1 13.4 93 0.6 SW 13 17 7 9 1016.5 1015.6 0.0
28/03:00am 15.3 14.0 12.4 83 1.6 SW 11 15 6 8 1016.4 1015.5 0.0
28/02:30am 15.3 13.9 12.1 81 1.8 SW 11 15 6 8 1016.4 1015.5 0.0
28/02:00am 15.8 13.7 11.2 74 2.5 SW 13 15 7 8 1016.2 1015.2 0.0
28/01:30am 15.8 14.0 10.8 72 2.7 SW 11 15 6 8 1016.2 1015.2 0.0
28/01:00am 16.4 14.4 10.0 66 3.5 W 11 15 6 8 1016.0 1015.0 0.0
28/12:30am 18.4 14.8 8.4 52 5.3 WNW 17 24 9 13 1015.9 1014.9 0.0

Other Formats:

Comma delimited format used in spreadsheet applications
http://www.bom.gov.au/fwo/IDS60801/IDS60801.94678.axf

JavaScript Object Notation format (JSON) in row-major order
http://www.bom.gov.au/fwo/IDS60801/IDS60801.94678.json